Time;durP1;ratioP1;P1;durP2;ratioP2;P2;SDS_P1;SDS_P2;PMS_P1;PMS_P2;Temp;Humidity;BMP_temperature;BMP_pressure;BME280_temperature;BME280_humidity;BME280_pressure;Samples;Min_cycle;Max_cycle;Signal;HPM_P1;HPM_P2
2021/11/21 00:01:25;;;;;;;;;;;;;;;26.11;56.81;100786.84;5058964;27;68658;-40
2021/11/21 00:03:55;;;;;;;;;;;;;;;26.13;56.61;100780.22;5077128;27;67031;-40
2021/11/21 00:06:25;;;;;;;;;;;;;;;26.13;56.44;100779.41;5076372;28;70516;-41
2021/11/21 00:08:55;;;;;;;;;;;;;;;26.10;55.79;100775.22;5076511;27;66428;-41
2021/11/21 00:11:25;;;;;;;;;;;;;;;26.09;55.46;100784.34;5076210;27;70332;-41
2021/11/21 00:13:55;;;;;;;;;;;;;;;26.08;55.55;100793.44;5077760;27;66176;-42
2021/11/21 00:16:25;;;;;;;;;;;;;;;26.07;56.05;100789.06;5076887;27;69350;-42
2021/11/21 00:18:55;;;;;;;;;;;;;;;26.06;56.07;100800.84;5074809;27;66847;-41
2021/11/21 00:21:25;;;;;;;;;;;;;;;26.09;56.35;100805.84;5070533;27;70782;-41
2021/11/21 00:23:55;;;;;;;;;;;;;;;26.05;55.78;100804.56;5076289;27;66326;-41
2021/11/21 00:26:26;;;;;;;;;;;;;;;26.03;55.49;100806.59;5076430;27;69327;-41
2021/11/21 00:28:55;;;;;;;;;;;;;;;26.07;56.08;100814.09;5076694;27;66494;-41
2021/11/21 00:31:25;;;;;;;;;;;;;;;26.20;65.65;100818.78;5078042;27;69938;-41
2021/11/21 00:33:57;;;;;;;;;;;;;;;26.34;62.64;100818.94;5080166;27;65725;-43
2021/11/21 00:36:27;;;;;;;;;;;;;;;26.44;63.09;100827.50;5080951;27;69747;-40
2021/11/21 00:38:58;;;;;;;;;;;;;;;26.58;64.63;100823.09;5079927;27;65604;-42
2021/11/21 00:41:28;;;;;;;;;;;;;;;26.69;65.83;100834.22;5081787;27;70033;-40
2021/11/21 00:43:57;;;;;;;;;;;;;;;26.80;67.03;100832.88;5081457;27;65587;-41
2021/11/21 00:46:27;;;;;;;;;;;;;;;26.91;67.46;100836.84;5079559;27;69837;-41
2021/11/21 00:48:57;;;;;;;;;;;;;;;26.98;68.06;100827.00;5080918;27;66251;-41
2021/11/21 00:51:27;;;;;;;;;;;;;;;27.08;68.26;100826.63;5080839;27;69334;-39
2021/11/21 00:54:07;;;;;;;;;;;;;;;27.15;69.03;100833.75;5074645;28;66528;-41
2021/11/21 00:56:37;;;;;;;;;;;;;;;27.23;69.55;100837.34;5079717;28;70499;-42
2021/11/21 00:59:06;;;;;;;;;;;;;;;27.30;69.68;100840.91;5080169;27;65553;-41
2021/11/21 01:01:36;;;;;;;;;;;;;;;27.34;70.24;100843.03;5079369;27;70397;-42
2021/11/21 01:04:06;;;;;;;;;;;;;;;27.42;70.69;100852.81;5080159;28;65866;-41
2021/11/21 01:06:36;;;;;;;;;;;;;;;27.47;70.61;100850.38;5080295;27;70388;-41
2021/11/21 01:09:07;;;;;;;;;;;;;;;27.54;71.14;100858.47;5078837;27;66154;-42
2021/11/21 01:11:38;;;;;;;;;;;;;;;27.59;70.99;100856.84;5079129;28;69304;-41
2021/11/21 01:14:08;;;;;;;;;;;;;;;27.64;71.53;100869.75;5079487;28;66648;-42
2021/11/21 01:16:38;;;;;;;;;;;;;;;27.69;71.50;100871.81;5078071;27;70514;-42
2021/11/21 01:19:08;;;;;;;;;;;;;;;27.73;71.83;100873.09;5079359;27;66371;-42
2021/11/21 01:21:37;;;;;;;;;;;;;;;27.77;71.94;100872.47;5079339;27;70447;-41
2021/11/21 01:24:09;;;;;;;;;;;;;;;27.81;71.86;100873.78;5079221;28;65840;-41
2021/11/21 01:26:39;;;;;;;;;;;;;;;27.84;72.12;100861.78;5077888;27;68550;-41
2021/11/21 01:29:09;;;;;;;;;;;;;;;27.88;72.02;100879.22;5060195;28;65350;-42
2021/11/21 01:31:41;;;;;;;;;;;;;;;27.91;72.21;100881.50;5078337;27;70610;-42
2021/11/21 01:34:11;;;;;;;;;;;;;;;27.95;72.32;100882.78;5076891;27;65629;-42
2021/11/21 01:36:41;;;;;;;;;;;;;;;27.98;72.26;100885.06;5075838;27;68608;-42
2021/11/21 01:39:11;;;;;;;;;;;;;;;28.00;72.44;100885.72;5074635;27;66679;-42
2021/11/21 01:41:42;;;;;;;;;;;;;;;28.03;72.01;100888.00;5078867;27;69888;-41
2021/11/21 01:44:14;;;;;;;;;;;;;;;28.06;72.68;100890.28;5078940;27;66503;-42
2021/11/21 01:46:44;;;;;;;;;;;;;;;28.10;72.17;100897.97;5078647;27;70225;-41
2021/11/21 01:49:14;;;;;;;;;;;;;;;28.13;72.62;100894.88;5078948;27;66710;-40
2021/11/21 01:51:45;;;;;;;;;;;;;;;28.16;72.79;100906.09;5073961;27;69765;-42
2021/11/21 01:54:16;;;;;;;;;;;;;;;28.19;72.95;100900.28;5079094;27;66396;-41
2021/11/21 01:56:46;;;;;;;;;;;;;;;28.23;72.80;100906.13;5078398;27;70395;-42
2021/11/21 01:59:16;;;;;;;;;;;;;;;28.26;72.73;100900.34;5078348;27;65530;-42
2021/11/21 02:01:46;;;;;;;;;;;;;;;28.28;72.87;100903.66;5079191;27;70137;-41
2021/11/21 02:04:16;;;;;;;;;;;;;;;28.31;72.95;100897.03;5078975;27;66567;-41
2021/11/21 02:06:46;;;;;;;;;;;;;;;28.33;72.84;100895.78;5077862;27;70143;-42
2021/11/21 02:09:17;;;;;;;;;;;;;;;28.37;72.54;100890.81;5077987;27;66385;-42
2021/11/21 02:11:47;;;;;;;;;;;;;;;28.39;72.62;100894.13;5076732;27;69437;-40
2021/11/21 02:14:17;;;;;;;;;;;;;;;28.41;72.95;100903.69;5078846;27;66390;-40
2021/11/21 02:16:47;;;;;;;;;;;;;;;28.44;73.76;100892.50;5079531;27;69371;-42
2021/11/21 02:19:17;;;;;;;;;;;;;;;28.46;73.30;100895.84;5081701;27;65910;-40
2021/11/21 02:21:47;;;;;;;;;;;;;;;28.49;74.13;100895.44;5075886;27;69923;-40
2021/11/21 02:24:17;;;;;;;;;;;;;;;28.52;73.51;100900.41;5075655;27;65614;-40
2021/11/21 02:26:47;;;;;;;;;;;;;;;28.40;74.88;100880.44;5079692;27;70191;-40
2021/11/21 02:29:17;;;;;;;;;;;;;;;28.58;73.84;100900.66;5076589;27;66273;-40
2021/11/21 02:31:46;;;;;;;;;;;;;;;28.62;74.00;100896.53;5079168;27;69075;-39
2021/11/21 02:34:16;;;;;;;;;;;;;;;28.66;74.74;100897.75;5076749;27;66596;-40
2021/11/21 02:36:46;;;;;;;;;;;;;;;28.69;75.10;100895.47;5077665;27;69026;-41
2021/11/21 02:39:16;;;;;;;;;;;;;;;28.74;74.29;100894.88;5078391;27;65877;-38
2021/11/21 02:41:46;;;;;;;;;;;;;;;28.79;74.51;100905.88;5076168;27;70600;-39
2021/11/21 02:44:16;;;;;;;;;;;;;;;28.84;74.18;100903.41;5077587;27;66305;-41
2021/11/21 02:46:47;;;;;;;;;;;;;;;28.85;74.54;100896.97;5078940;27;69689;-40
2021/11/21 02:49:17;;;;;;;;;;;;;;;28.89;73.97;100895.53;5078946;27;65483;-42
2021/11/21 02:51:47;;;;;;;;;;;;;;;28.91;73.79;100889.91;5074064;27;69108;-45
2021/11/21 02:54:17;;;;;;;;;;;;;;;28.92;73.21;100899.69;5079092;27;66605;-41
2021/11/21 02:56:47;;;;;;;;;;;;;;;28.94;72.72;100900.28;5080003;27;69196;-41
2021/11/21 02:59:24;;;;;;;;;;;;;;;28.97;72.61;100886.38;5078704;27;66793;-41
2021/11/21 03:01:54;;;;;;;;;;;;;;;29.01;72.71;100881.41;5080149;27;70224;-42
2021/11/21 03:04:24;;;;;;;;;;;;;;;29.06;71.68;100884.31;5076698;27;64626;-42
2021/11/21 03:06:55;;;;;;;;;;;;;;;29.11;71.75;100881.81;5078599;27;69504;-42
2021/11/21 03:09:25;;;;;;;;;;;;;;;29.14;71.72;100876.00;5079231;27;65735;-41
2021/11/21 03:11:58;;;;;;;;;;;;;;;29.19;71.38;100873.50;5077447;27;70100;-41
2021/11/21 03:14:28;;;;;;;;;;;;;;;29.23;71.47;100877.47;5079423;27;66515;-42
2021/11/21 03:17:00;;;;;;;;;;;;;;;29.26;71.73;100874.34;5079516;27;69487;-41
2021/11/21 03:19:30;;;;;;;;;;;;;;;29.28;71.36;100872.28;5076275;27;65858;-41
2021/11/21 03:22:00;;;;;;;;;;;;;;;29.35;71.23;100864.16;5076364;27;69279;-41
2021/11/21 03:24:31;;;;;;;;;;;;;;;29.38;70.84;100856.44;5072435;27;66157;-41
2021/11/21 03:27:01;;;;;;;;;;;;;;;29.44;70.26;100851.25;5077740;27;70568;-41
2021/11/21 03:29:32;;;;;;;;;;;;;;;29.48;69.24;100852.50;5079281;27;66755;-40
2021/11/21 03:32:02;;;;;;;;;;;;;;;29.50;69.69;100842.28;5070133;27;69072;-40
2021/11/21 03:34:34;;;;;;;;;;;;;;;29.53;69.21;100839.16;5075605;27;66624;-41
2021/11/21 03:37:05;;;;;;;;;;;;;;;29.59;67.60;100846.44;5080486;27;69968;-41
2021/11/21 03:39:36;;;;;;;;;;;;;;;29.62;67.86;100832.50;5078138;27;65711;-42
2021/11/21 03:42:06;;;;;;;;;;;;;;;29.67;68.93;100821.06;5078543;27;69504;-42
2021/11/21 03:44:36;;;;;;;;;;;;;;;29.70;69.60;100821.47;5078977;27;67048;-42
2021/11/21 03:47:06;;;;;;;;;;;;;;;29.73;67.32;100826.47;5076946;27;70114;-42
2021/11/21 03:49:35;;;;;;;;;;;;;;;29.78;67.58;100823.09;5073858;27;67047;-41
2021/11/21 03:52:05;;;;;;;;;;;;;;;29.84;66.27;100812.25;5077186;27;69429;-42
2021/11/21 03:54:36;;;;;;;;;;;;;;;29.90;66.36;100815.16;5075883;27;66517;-42
2021/11/21 03:57:06;;;;;;;;;;;;;;;29.93;65.96;100812.03;5077927;27;70406;-41
2021/11/21 03:59:36;;;;;;;;;;;;;;;29.95;65.98;100801.78;5078686;27;65647;-42
2021/11/21 04:02:06;;;;;;;;;;;;;;;30.00;65.58;100807.38;5075582;27;70228;-42
2021/11/21 04:04:37;;;;;;;;;;;;;;;30.03;65.43;100810.50;5069982;27;66832;-42
2021/11/21 04:07:07;;;;;;;;;;;;;;;30.07;65.74;100808.19;5075922;27;69089;-41
2021/11/21 04:09:38;;;;;;;;;;;;;;;30.10;64.81;100805.06;5073898;27;66859;-41
2021/11/21 04:12:08;;;;;;;;;;;;;;;30.15;64.09;100801.72;5077120;27;70701;-40
2021/11/21 04:14:38;;;;;;;;;;;;;;;30.18;64.87;100802.09;5077021;27;66516;-41
2021/11/21 04:17:08;;;;;;;;;;;;;;;30.24;64.46;100809.38;5073837;27;70346;-39
2021/11/21 04:19:38;;;;;;;;;;;;;;;30.30;64.88;100798.72;5077469;27;65896;-42
2021/11/21 04:22:08;;;;;;;;;;;;;;;30.34;64.05;100789.97;5076247;27;70818;-40
2021/11/21 04:24:38;;;;;;;;;;;;;;;30.38;65.04;100784.94;5074838;27;66388;-41
2021/11/21 04:27:08;;;;;;;;;;;;;;;30.42;65.10;100786.13;5072646;27;70418;-42
2021/11/21 04:29:37;;;;;;;;;;;;;;;30.45;65.02;100785.69;5074016;27;66716;-42
2021/11/21 04:32:07;;;;;;;;;;;;;;;30.48;64.88;100777.97;5072119;28;69959;-42
2021/11/21 04:34:37;;;;;;;;;;;;;;;30.28;64.84;100732.13;5067590;27;65804;-41
2021/11/21 04:37:07;;;;;;;;;;;;;;;30.56;63.90;100767.91;5075062;27;70066;-42
2021/11/21 04:39:38;;;;;;;;;;;;;;;30.57;64.38;100756.88;5078410;27;66510;-40
2021/11/21 04:42:07;;;;;;;;;;;;;;;30.67;64.48;100761.78;5078030;27;70312;-42
2021/11/21 04:44:37;;;;;;;;;;;;;;;30.69;64.40;100749.69;5077682;27;65535;-42
2021/11/21 04:47:07;;;;;;;;;;;;;;;30.70;64.46;100748.66;5059756;28;68815;-42
2021/11/21 04:49:37;;;;;;;;;;;;;;;30.72;63.96;100743.00;5075476;27;66715;-41
2021/11/21 04:52:07;;;;;;;;;;;;;;;30.73;64.44;100737.38;5076187;27;69644;-42
2021/11/21 04:54:37;;;;;;;;;;;;;;;30.74;63.08;100724.66;5076841;27;65773;-42
2021/11/21 04:57:08;;;;;;;;;;;;;;;30.76;63.25;100729.81;5076178;27;70017;-42
2021/11/21 04:59:38;;;;;;;;;;;;;;;30.78;62.96;100719.59;5066658;27;66055;-43
2021/11/21 05:02:08;;;;;;;;;;;;;;;30.81;62.75;100720.00;5077256;27;70342;-41
2021/11/21 05:04:38;;;;;;;;;;;;;;;30.85;62.88;100717.72;5077123;27;66060;-42
2021/11/21 05:07:08;;;;;;;;;;;;;;;30.88;62.81;100707.25;5077492;27;70018;-42
2021/11/21 05:09:38;;;;;;;;;;;;;;;30.89;62.62;100705.34;5075981;27;66620;-42
2021/11/21 05:12:08;;;;;;;;;;;;;;;30.95;62.74;100693.63;5077842;27;70361;-41
2021/11/21 05:14:38;;;;;;;;;;;;;;;31.01;62.44;100692.75;5076822;27;66038;-41
2021/11/21 05:17:08;;;;;;;;;;;;;;;31.03;62.94;100685.19;5078859;27;70218;-41
2021/11/21 05:19:37;;;;;;;;;;;;;;;31.06;62.50;100682.03;5079508;27;66112;-42
2021/11/21 05:22:07;;;;;;;;;;;;;;;31.09;62.03;100683.47;5078522;27;70430;-41
2021/11/21 05:24:37;;;;;;;;;;;;;;;31.11;62.03;100676.75;5075932;27;67073;-42
2021/11/21 05:27:07;;;;;;;;;;;;;;;31.16;62.78;100668.78;5078905;27;69945;-40
2021/11/21 05:29:37;;;;;;;;;;;;;;;31.20;62.42;100658.31;5081203;27;67578;-39
2021/11/21 05:32:07;;;;;;;;;;;;;;;31.15;60.79;100666.31;5079627;27;70686;-41
2021/11/21 05:34:37;;;;;;;;;;;;;;;31.08;59.23;100655.53;5060583;28;66232;-39
2021/11/21 05:37:07;;;;;;;;;;;;;;;30.98;58.62;100651.72;5077221;27;69238;-39
2021/11/21 05:39:36;;;;;;;;;;;;;;;30.90;56.10;100647.44;5076567;27;65804;-40
2021/11/21 05:42:06;;;;;;;;;;;;;;;30.81;56.12;100640.66;5077001;27;69501;-40
2021/11/21 05:44:36;;;;;;;;;;;;;;;30.72;55.10;100637.41;5077644;27;66620;-40
2021/11/21 05:47:06;;;;;;;;;;;;;;;30.66;52.72;100627.47;5075218;27;69120;-39
2021/11/21 05:49:36;;;;;;;;;;;;;;;30.60;53.52;100626.50;5077314;27;66550;-40
2021/11/21 05:52:06;;;;;;;;;;;;;;;30.57;52.91;100620.69;5066343;27;70044;-40
2021/11/21 05:54:36;;;;;;;;;;;;;;;30.51;50.83;100619.72;5076028;27;65338;-40
2021/11/21 05:57:07;;;;;;;;;;;;;;;30.44;50.31;100621.66;5073745;27;70678;-38
2021/11/21 05:59:37;;;;;;;;;;;;;;;30.43;50.66;100620.00;5076434;27;65763;-40
2021/11/21 06:02:07;;;;;;;;;;;;;;;30.36;50.61;100611.94;5074743;27;69404;-40
2021/11/21 06:04:37;;;;;;;;;;;;;;;30.30;50.86;100614.72;5075713;27;65825;-39
2021/11/21 06:07:09;;;;;;;;;;;;;;;30.27;50.15;100614.09;5075566;27;70089;-39
2021/11/21 06:09:39;;;;;;;;;;;;;;;30.18;48.36;100607.31;5074763;27;66298;-40
2021/11/21 06:12:09;;;;;;;;;;;;;;;30.16;49.24;100606.69;5074595;27;69697;-39
2021/11/21 06:14:39;;;;;;;;;;;;;;;30.09;48.11;100600.53;5076198;27;65794;-38
2021/11/21 06:17:09;;;;;;;;;;;;;;;30.10;48.71;100604.88;5075146;27;68021;-38
2021/11/21 06:19:39;;;;;;;;;;;;;;;30.04;45.93;100600.34;5076770;27;66959;-40
2021/11/21 06:22:09;;;;;;;;;;;;;;;29.88;45.08;100593.63;5078202;27;67930;-40
2021/11/21 06:24:39;;;;;;;;;;;;;;;29.73;44.58;100593.94;5078624;27;65570;-39
2021/11/21 06:27:09;;;;;;;;;;;;;;;29.61;44.31;100588.41;5079908;27;69977;-40
2021/11/21 06:29:39;;;;;;;;;;;;;;;29.53;44.03;100594.06;5079840;27;65649;-39
2021/11/21 06:32:09;;;;;;;;;;;;;;;29.45;44.07;100591.63;5077644;27;69457;-40
2021/11/21 06:34:39;;;;;;;;;;;;;;;29.37;43.59;100581.88;5079571;27;66691;-39
2021/11/21 06:37:09;;;;;;;;;;;;;;;29.34;43.96;100585.03;5077850;28;68961;-39
2021/11/21 06:39:40;;;;;;;;;;;;;;;29.28;43.73;100574.25;5075847;28;67252;-40
2021/11/21 06:42:12;;;;;;;;;;;;;;;29.24;43.39;100579.25;5080153;27;68953;-42
2021/11/21 06:44:42;;;;;;;;;;;;;;;29.22;43.35;100570.53;5079375;28;66319;-41
2021/11/21 06:47:15;;;;;;;;;;;;;;;29.17;42.13;100579.31;5078424;27;70113;-40
2021/11/21 06:49:45;;;;;;;;;;;;;;;29.15;42.79;100576.00;5076010;27;66603;-40
2021/11/21 06:52:18;;;;;;;;;;;;;;;29.12;42.28;100578.31;5079683;27;69904;-40
2021/11/21 06:54:47;;;;;;;;;;;;;;;29.08;42.44;100577.06;5078925;27;65263;-40
2021/11/21 06:57:19;;;;;;;;;;;;;;;29.06;42.49;100577.28;5079272;27;69833;-41
2021/11/21 06:59:49;;;;;;;;;;;;;;;29.04;42.75;100573.97;5079252;27;65473;-41
2021/11/21 07:02:18;;;;;;;;;;;;;;;29.01;42.59;100568.16;5079614;27;69532;-42
2021/11/21 07:04:49;;;;;;;;;;;;;;;28.98;42.44;100568.59;5079280;27;67032;-41
2021/11/21 07:07:20;;;;;;;;;;;;;;;28.95;42.39;100565.25;5075074;27;69228;-41
2021/11/21 07:09:50;;;;;;;;;;;;;;;28.95;42.43;100559.84;5079143;27;66737;-42
2021/11/21 07:12:20;;;;;;;;;;;;;;;28.94;41.55;100563.59;5079531;27;70929;-42
2021/11/21 07:15:11;;;;;;;;;;;;;;;28.90;42.04;100551.56;5079756;27;66986;-42
2021/11/21 07:17:41;;;;;;;;;;;;;;;28.86;41.45;100547.66;5080509;27;69208;-42
2021/11/21 07:20:15;;;;;;;;;;;;;;;28.88;41.34;100553.66;5077891;28;66681;-41
2021/11/21 07:22:47;;;;;;;;;;;;;;;28.88;41.54;100555.53;5075968;28;70091;-41
2021/11/21 07:25:18;;;;;;;;;;;;;;;28.84;41.27;100555.13;5078817;27;66062;-39
2021/11/21 07:27:51;;;;;;;;;;;;;;;28.89;41.81;100554.47;5076153;27;63729;-38
2021/11/21 07:30:22;;;;;;;;;;;;;;;28.90;41.67;100564.25;5077286;27;65960;-38
2021/11/21 07:32:53;;;;;;;;;;;;;;;28.85;41.81;100543.28;5078616;27;69844;-39
2021/11/21 07:35:23;;;;;;;;;;;;;;;28.84;41.71;100540.81;5075454;27;66734;-40
2021/11/21 07:37:53;;;;;;;;;;;;;;;28.78;41.68;100531.69;5077589;27;69787;-39
2021/11/21 07:40:23;;;;;;;;;;;;;;;28.77;41.68;100524.63;5076332;27;66564;-39
2021/11/21 07:42:55;;;;;;;;;;;;;;;28.77;41.81;100535.44;5077156;27;69729;-39
2021/11/21 07:45:24;;;;;;;;;;;;;;;28.74;41.26;100525.06;5075509;27;65655;-43
2021/11/21 07:47:54;;;;;;;;;;;;;;;28.70;41.24;100513.88;5078287;27;70060;-39
2021/11/21 07:50:24;;;;;;;;;;;;;;;28.69;41.33;100511.38;5079127;27;65663;-38
2021/11/21 07:52:54;;;;;;;;;;;;;;;28.66;41.06;100507.22;5079216;27;70411;-40
2021/11/21 07:55:24;;;;;;;;;;;;;;;28.65;40.92;100502.88;5077005;27;66305;-38
2021/11/21 07:57:54;;;;;;;;;;;;;;;28.65;40.96;100512.84;5073284;27;70194;-39
2021/11/21 08:00:24;;;;;;;;;;;;;;;28.66;41.12;100511.81;5077568;27;66924;-39
2021/11/21 08:02:54;;;;;;;;;;;;;;;28.67;41.05;100510.78;5078798;27;70763;-39
2021/11/21 08:05:24;;;;;;;;;;;;;;;28.68;40.95;100507.03;5073434;27;65631;-41
2021/11/21 08:07:54;;;;;;;;;;;;;;;28.68;41.24;100498.94;5079903;27;70610;-39
2021/11/21 08:10:25;;;;;;;;;;;;;;;28.70;41.22;100502.25;5044865;28;64950;-39
2021/11/21 08:12:55;;;;;;;;;;;;;;;28.72;40.67;100505.53;5061200;28;70343;-39
2021/11/21 08:15:25;;;;;;;;;;;;;;;28.74;41.61;100503.47;5076366;27;66155;-39
2021/11/21 08:17:55;;;;;;;;;;;;;;;28.74;41.27;100503.47;5074718;27;70169;-39
2021/11/21 08:20:26;;;;;;;;;;;;;;;28.74;41.53;100508.84;5075888;27;65548;-40
2021/11/21 08:22:57;;;;;;;;;;;;;;;28.72;41.33;100502.84;5070976;27;69344;-40
2021/11/21 08:25:27;;;;;;;;;;;;;;;28.75;41.54;100510.50;5022723;28;65835;-38
2021/11/21 08:27:57;;;;;;;;;;;;;;;28.71;41.51;100498.50;5078619;27;69061;-39
2021/11/21 08:30:29;;;;;;;;;;;;;;;28.80;42.21;100505.28;5079942;27;65410;-40
2021/11/21 08:32:59;;;;;;;;;;;;;;;28.77;42.14;100508.44;5067285;27;70135;-39
2021/11/21 08:35:33;;;;;;;;;;;;;;;28.79;42.03;100509.06;5059612;28;66351;-40
2021/11/21 08:38:03;;;;;;;;;;;;;;;28.79;41.55;100503.66;5076118;27;69345;-40
2021/11/21 08:40:42;;;;;;;;;;;;;;;28.90;42.87;100508.38;5072319;27;64297;-40
2021/11/21 08:43:24;;;;;;;;;;;;;;;29.22;47.46;100507.59;5078008;27;70204;-41
2021/11/21 08:45:55;;;;;;;;;;;;;;;29.49;49.64;100502.81;5076583;27;66656;-40
2021/11/21 08:48:27;;;;;;;;;;;;;;;29.68;51.61;100507.28;5078783;27;69250;-41
2021/11/21 08:50:57;;;;;;;;;;;;;;;29.91;52.94;100503.13;5079361;27;66791;-40
2021/11/21 08:53:28;;;;;;;;;;;;;;;29.98;54.14;100487.66;5074650;27;68938;-42
2021/11/21 08:55:58;;;;;;;;;;;;;;;30.25;56.13;100504.44;5080254;27;65584;-40
2021/11/21 08:58:39;;;;;;;;;;;;;;;30.39;57.27;100499.72;5081335;27;69657;-41
2021/11/21 09:01:10;;;;;;;;;;;;;;;30.51;58.48;100508.75;5081908;27;67283;-41
2021/11/21 09:03:40;;;;;;;;;;;;;;;30.66;58.98;100511.88;5081650;27;69934;-41
2021/11/21 09:06:10;;;;;;;;;;;;;;;30.77;60.08;100517.59;5080275;27;66403;-40
2021/11/21 09:08:42;;;;;;;;;;;;;;;30.87;60.35;100520.59;5081477;27;69462;-44
2021/11/21 09:11:12;;;;;;;;;;;;;;;30.95;60.64;100531.09;5080463;27;66188;-40
2021/11/21 09:13:41;;;;;;;;;;;;;;;31.02;61.69;100537.28;5079717;27;70486;-41
2021/11/21 09:16:11;;;;;;;;;;;;;;;31.08;61.93;100540.94;5079918;27;65108;-39
2021/11/21 09:18:41;;;;;;;;;;;;;;;31.14;61.55;100546.25;5077971;27;69012;-40
2021/11/21 09:21:13;;;;;;;;;;;;;;;31.21;61.49;100548.06;5079900;27;66308;-39
2021/11/21 09:23:44;;;;;;;;;;;;;;;31.27;61.56;100552.56;5080896;27;70376;-41
2021/11/21 09:26:14;;;;;;;;;;;;;;;31.31;61.88;100551.03;5075081;27;66848;-39
2021/11/21 09:28:44;;;;;;;;;;;;;;;31.35;61.73;100552.22;5079209;27;70083;-40
2021/11/21 09:31:14;;;;;;;;;;;;;;;31.38;61.94;100562.63;5081880;27;67160;-40
2021/11/21 09:33:44;;;;;;;;;;;;;;;31.43;62.31;100575.50;5082048;27;70393;-41
2021/11/21 09:36:14;;;;;;;;;;;;;;;31.47;62.14;100565.84;5079724;27;66240;-40
2021/11/21 09:38:44;;;;;;;;;;;;;;;31.50;62.41;100568.91;5080907;27;69819;-40
2021/11/21 09:41:15;;;;;;;;;;;;;;;31.54;62.14;100574.72;5080642;27;66535;-40
2021/11/21 09:43:45;;;;;;;;;;;;;;;31.56;62.76;100570.69;5080484;27;69978;-40
2021/11/21 09:46:16;;;;;;;;;;;;;;;31.60;62.34;100576.47;5081025;27;65843;-40
2021/11/21 09:48:46;;;;;;;;;;;;;;;31.63;62.67;100578.72;5080154;27;69013;-40
2021/11/21 09:51:16;;;;;;;;;;;;;;;31.64;62.75;100588.50;5076812;27;66495;-40
2021/11/21 09:53:47;;;;;;;;;;;;;;;31.67;62.55;100588.03;5080150;27;70437;-40
2021/11/21 09:56:17;;;;;;;;;;;;;;;31.66;62.79;100586.41;5080492;27;66310;-40
2021/11/21 09:58:47;;;;;;;;;;;;;;;31.69;62.57;100596.78;5079592;27;70469;-40
2021/11/21 10:01:35;;;;;;;;;;;;;;;31.70;62.97;100594.88;5079392;27;66365;-39
2021/11/21 10:04:07;;;;;;;;;;;;;;;31.72;63.29;100603.63;5075462;27;69709;-40
2021/11/21 10:06:48;;;;;;;;;;;;;;;31.73;63.23;100610.69;5079206;27;66385;-41
2021/11/21 10:09:20;;;;;;;;;;;;;;;31.74;63.04;100617.78;5080754;27;70036;-40
2021/11/21 10:12:05;;;;;;;;;;;;;;;31.48;65.70;100610.84;5080114;27;66407;-39
2021/11/21 10:14:52;;;;;;;;;;;;;;;31.26;66.48;100622.19;5080089;27;70384;-42
2021/11/21 10:17:27;;;;;;;;;;;;;;;31.09;67.84;100624.72;5079754;27;66219;-38
2021/11/21 10:20:03;;;;;;;;;;;;;;;31.02;68.62;100623.94;5073399;27;70199;-40
2021/11/21 10:22:50;;;;;;;;;;;;;;;31.01;69.03;100627.72;5079916;27;66614;-38
2021/11/21 10:25:41;;;;;;;;;;;;;;;31.00;69.43;100626.06;5071933;28;70049;-40
2021/11/21 10:28:32;;;;;;;;;;;;;;;30.96;69.71;100630.28;5080702;27;66891;-40
2021/11/21 10:31:13;;;;;;;;;;;;;;;31.04;69.43;100632.69;5046366;28;69805;-40
2021/11/21 10:33:47;;;;;;;;;;;;;;;31.23;68.42;100632.63;5047319;28;65271;-40
2021/11/21 10:36:20;;;;;;;;;;;;;;;31.36;67.64;100629.78;5057500;28;70428;-40
2021/11/21 10:38:52;;;;;;;;;;;;;;;31.46;67.42;100635.50;5061953;27;65562;-40
2021/11/21 10:41:29;;;;;;;;;;;;;;;31.24;66.95;100593.66;5045635;28;70023;-40
2021/11/21 10:44:12;;;;;;;;;;;;;;;31.56;66.59;100634.94;5080998;27;66090;-40
2021/11/21 10:46:53;;;;;;;;;;;;;;;31.59;66.43;100629.03;5078750;27;70982;-39
2021/11/21 10:49:27;;;;;;;;;;;;;;;31.58;66.56;100633.63;5080536;27;66631;-39
2021/11/21 10:51:57;;;;;;;;;;;;;;;31.63;66.66;100637.56;5076795;27;69378;-39
2021/11/21 10:54:36;;;;;;;;;;;;;;;31.65;66.08;100648.97;5079430;27;66925;-39
2021/11/21 10:57:11;;;;;;;;;;;;;;;31.67;66.09;100634.13;5078015;27;70895;-40
2021/11/21 10:59:53;;;;;;;;;;;;;;;31.67;66.39;100636.03;5075623;27;65559;-40
2021/11/21 11:02:25;;;;;;;;;;;;;;;31.66;66.00;100635.19;5074190;27;70574;-40
2021/11/21 11:04:56;;;;;;;;;;;;;;;31.67;66.68;100646.88;5078463;27;67080;-40
2021/11/21 11:07:27;;;;;;;;;;;;;;;31.65;66.73;100641.69;5078008;27;70218;-41
2021/11/21 11:09:57;;;;;;;;;;;;;;;31.67;66.33;100650.41;5075753;27;65659;-41
2021/11/21 11:12:27;;;;;;;;;;;;;;;31.68;65.84;100648.50;5073309;27;69408;-41
2021/11/21 11:14:57;;;;;;;;;;;;;;;31.67;65.96;100646.88;5079949;27;65436;-39
2021/11/21 11:17:27;;;;;;;;;;;;;;;31.69;65.73;100644.75;5079609;27;69796;-41
2021/11/21 11:19:59;;;;;;;;;;;;;;;31.69;65.43;100644.75;5080856;27;67013;-41
2021/11/21 11:22:29;;;;;;;;;;;;;;;31.71;65.55;100656.22;5077958;28;70369;-41
2021/11/21 11:25:02;;;;;;;;;;;;;;;31.69;64.96;100661.03;5077716;28;67084;-40
2021/11/21 11:27:46;;;;;;;;;;;;;;;31.73;65.41;100662.22;5074575;27;70372;-41
2021/11/21 11:30:18;;;;;;;;;;;;;;;31.69;65.38;100667.28;5071467;27;66922;-40
2021/11/21 11:32:48;;;;;;;;;;;;;;;31.73;64.97;100673.06;5070026;27;70438;-41
2021/11/21 11:35:18;;;;;;;;;;;;;;;31.73;64.80;100673.06;5082033;27;66063;-41
2021/11/21 11:37:49;;;;;;;;;;;;;;;31.73;65.37;100678.47;5077869;27;69747;-42
2021/11/21 11:40:25;;;;;;;;;;;;;;;31.71;65.08;100686.88;5074803;27;67450;-42
2021/11/21 11:42:59;;;;;;;;;;;;;;;31.73;65.35;100700.19;5072187;27;69150;-41
2021/11/21 11:45:50;;;;;;;;;;;;;;;31.74;64.90;100701.84;5069822;27;65437;-41
2021/11/21 11:48:33;;;;;;;;;;;;;;;31.55;65.55;100703.78;5075601;27;69426;-40
2021/11/21 11:51:09;;;;;;;;;;;;;;;31.43;66.16;100719.16;5075972;27;66956;-42
2021/11/21 11:53:38;;;;;;;;;;;;;;;31.28;66.96;100719.50;5078228;27;69109;-40
2021/11/21 11:56:10;;;;;;;;;;;;;;;31.25;68.03;100725.38;5078783;27;65881;-40
2021/11/21 11:58:46;;;;;;;;;;;;;;;31.20;68.68;100730.66;5079347;27;70450;-40
2021/11/21 12:01:45;;;;;;;;;;;;;;;31.15;69.63;100726.75;5068079;27;65482;-40
2021/11/21 12:04:15;;;;;;;;;;;;;;;31.04;69.75;100743.75;5038437;27;68683;-41
2021/11/21 12:06:49;;;;;;;;;;;;;;;30.77;67.13;100745.88;5079713;27;66687;-39
2021/11/21 12:09:27;;;;;;;;;;;;;;;30.44;64.25;100752.38;5076163;27;70371;-39
2021/11/21 12:12:04;;;;;;;;;;;;;;;30.23;63.25;100753.59;5079184;27;66533;-40
2021/11/21 12:14:35;;;;;;;;;;;;;;;30.00;62.21;100756.00;5077721;27;70472;-40
2021/11/21 12:17:08;;;;;;;;;;;;;;;29.83;59.96;100761.91;5076756;27;65702;-40
2021/11/21 12:19:40;;;;;;;;;;;;;;;29.66;58.53;100771.56;5077709;27;70048;-40
2021/11/21 12:24:56;;;;;;;;;;;;;;;29.38;56.20;100774.56;5081541;27;70462;-40
2021/11/21 12:27:28;;;;;;;;;;;;;;;29.26;55.04;100781.66;5082644;28;65092;-40
2021/11/21 12:30:06;;;;;;;;;;;;;;;29.17;54.06;100781.06;5085110;27;70069;-40
2021/11/21 12:32:46;;;;;;;;;;;;;;;29.11;54.81;100787.28;5083957;27;67890;-37
2021/11/21 12:35:23;;;;;;;;;;;;;;;28.98;54.39;100793.53;5074947;27;70584;-38
2021/11/21 12:37:55;;;;;;;;;;;;;;;28.90;53.67;100794.56;5078762;27;66721;-36
2021/11/21 12:40:32;;;;;;;;;;;;;;;28.81;53.07;100795.81;5083928;27;70344;-37
2021/11/21 12:43:06;;;;;;;;;;;;;;;28.79;53.19;100805.19;5081211;28;65536;-36
2021/11/21 12:45:38;;;;;;;;;;;;;;;28.73;52.69;100812.22;5082037;27;69730;-37
2021/11/21 12:48:09;;;;;;;;;;;;;;;28.66;51.64;100811.38;5082683;27;66240;-35
2021/11/21 12:50:44;;;;;;;;;;;;;;;28.52;51.64;100802.44;5082114;27;69371;-36
2021/11/21 12:53:20;;;;;;;;;;;;;;;28.52;51.18;100814.06;5081788;27;65492;-36
2021/11/21 12:55:58;;;;;;;;;;;;;;;28.44;50.65;100811.56;5083117;27;70327;-34
2021/11/21 12:58:28;;;;;;;;;;;;;;;28.41;50.71;100822.75;5081931;27;66531;-36
2021/11/21 13:00:59;;;;;;;;;;;;;;;28.36;50.41;100827.94;5077873;27;69428;-35